createdAt,value
2023-11-14T00:02:02.790Z,12.12
2023-11-14T00:04:29.739Z,12.16
2023-11-14T00:06:56.587Z,12.12
2023-11-14T00:09:24.033Z,12.12
2023-11-14T00:11:50.893Z,12.22
2023-11-14T00:14:17.698Z,12.33
2023-11-14T00:16:44.585Z,12.36
2023-11-14T00:19:11.415Z,12.29
2023-11-14T00:21:38.219Z,12.44
2023-11-14T00:24:05.555Z,12.37
2023-11-14T00:26:32.274Z,12.36
2023-11-14T00:28:59.130Z,12.49
2023-11-14T00:31:26.022Z,12.54
2023-11-14T00:33:53.292Z,12.42
2023-11-14T00:36:20.449Z,12.62
2023-11-14T00:38:47.241Z,12.61
2023-11-14T00:41:14.430Z,12.43
2023-11-14T00:43:41.263Z,12.45
2023-11-14T00:46:11.245Z,12.45
2023-11-14T00:49:16.011Z,12.30
2023-11-14T00:51:42.841Z,12.37
2023-11-14T00:54:09.663Z,12.47
2023-11-14T00:56:36.507Z,12.43
2023-11-14T00:59:03.363Z,12.46
2023-11-14T01:01:30.345Z,12.37
2023-11-14T01:04:03.540Z,12.41
2023-11-14T01:06:30.336Z,12.37
2023-11-14T01:08:57.079Z,12.37
2023-11-14T01:11:24.222Z,12.53
2023-11-14T01:13:51.109Z,12.58
2023-11-14T01:16:17.939Z,12.45
2023-11-14T01:18:44.761Z,12.64
2023-11-14T01:21:18.460Z,12.53
2023-11-14T01:23:45.539Z,12.69
2023-11-14T01:26:12.376Z,12.69
2023-11-14T01:29:12.562Z,12.97
2023-11-14T01:31:39.354Z,12.99
2023-11-14T01:34:06.634Z,13.01
2023-11-14T01:36:33.443Z,13.13
2023-11-14T01:39:00.245Z,12.92
2023-11-14T01:41:26.999Z,12.83
2023-11-14T01:43:53.826Z,12.84
2023-11-14T01:46:20.979Z,12.80
2023-11-14T01:48:48.627Z,12.91
2023-11-14T01:51:16.186Z,12.85
2023-11-14T01:53:44.079Z,12.93
2023-11-14T01:56:11.216Z,12.97
2023-11-14T01:58:38.038Z,12.98
2023-11-14T02:01:05.089Z,13.07
2023-11-14T02:03:34.940Z,13.11
2023-11-14T02:06:02.167Z,13.06
2023-11-14T02:08:30.586Z,13.08
2023-11-14T02:10:57.676Z,13.15
2023-11-14T02:13:24.560Z,13.09
2023-11-14T02:15:51.405Z,13.18
2023-11-14T02:18:19.007Z,13.13
2023-11-14T02:20:46.231Z,13.17
2023-11-14T02:23:15.220Z,13.23
2023-11-14T02:25:41.962Z,13.21
2023-11-14T02:28:19.852Z,13.18
2023-11-14T02:30:46.665Z,13.08
2023-11-14T02:33:13.414Z,13.16
2023-11-14T02:35:40.147Z,13.24
2023-11-14T02:38:07.283Z,13.33
2023-11-14T02:40:34.192Z,13.29
2023-11-14T02:43:01.078Z,13.28
2023-11-14T02:45:27.883Z,13.32
2023-11-14T02:47:55.040Z,13.37
2023-11-14T02:50:46.727Z,13.38
2023-11-14T02:53:13.494Z,13.38
2023-11-14T02:56:16.461Z,13.39
2023-11-14T02:58:43.221Z,13.43
2023-11-14T03:01:10.001Z,13.42
2023-11-14T03:03:37.421Z,13.32
2023-11-14T03:06:05.692Z,13.30
2023-11-14T03:08:33.327Z,13.40
2023-11-14T03:11:00.587Z,13.37
2023-11-14T03:13:27.462Z,13.32
2023-11-14T03:15:54.527Z,13.27
2023-11-14T03:18:21.282Z,13.26
2023-11-14T03:20:48.087Z,13.21
2023-11-14T03:23:14.912Z,13.22
2023-11-14T03:25:41.760Z,13.26
2023-11-14T03:28:08.573Z,13.32
2023-11-14T03:30:35.307Z,13.41
2023-11-14T03:33:02.277Z,13.52
2023-11-14T03:35:29.161Z,13.48
2023-11-14T03:37:56.047Z,13.46
2023-11-14T03:40:23.920Z,13.69
2023-11-14T03:42:50.634Z,13.62
2023-11-14T03:45:17.446Z,13.45
2023-11-14T03:47:44.208Z,13.59
2023-11-14T03:50:11.175Z,13.56
2023-11-14T03:52:38.916Z,13.56
2023-11-14T03:55:06.272Z,13.58
2023-11-14T03:57:33.312Z,13.65
2023-11-14T04:00:00.312Z,13.64
2023-11-14T04:02:27.461Z,13.61
2023-11-14T04:04:54.635Z,13.65
2023-11-14T04:07:21.421Z,13.72
2023-11-14T04:09:48.194Z,13.69
2023-11-14T04:12:15.349Z,13.79
2023-11-14T04:14:43.530Z,13.70
2023-11-14T04:17:10.648Z,13.74
2023-11-14T04:19:38.824Z,13.78
2023-11-14T04:22:05.674Z,13.79
2023-11-14T04:24:33.328Z,14.02
2023-11-14T04:27:00.760Z,13.85
2023-11-14T04:29:27.530Z,13.83
2023-11-14T04:31:54.466Z,13.98
2023-11-14T04:34:21.638Z,13.83
2023-11-14T04:36:48.434Z,13.70
2023-11-14T04:39:16.011Z,13.65
2023-11-14T04:41:43.019Z,13.64
2023-11-14T04:44:10.941Z,13.71
2023-11-14T04:46:37.809Z,13.68
2023-11-14T04:49:04.964Z,13.59
2023-11-14T04:51:31.875Z,13.51
2023-11-14T04:53:58.668Z,13.49
2023-11-14T04:56:26.964Z,13.43
2023-11-14T04:58:53.989Z,13.36
2023-11-14T05:01:20.745Z,13.50
2023-11-14T05:03:48.061Z,13.42
2023-11-14T05:06:15.146Z,13.37
2023-11-14T05:08:41.923Z,13.33
2023-11-14T05:11:08.883Z,13.31
2023-11-14T05:13:35.719Z,13.28
2023-11-14T05:16:11.228Z,13.25
2023-11-14T05:18:46.345Z,13.22
2023-11-14T05:21:13.142Z,13.22
2023-11-14T05:23:40.306Z,13.27
2023-11-14T05:26:07.096Z,13.26
2023-11-14T05:28:34.169Z,13.24
2023-11-14T05:31:01.005Z,13.16
2023-11-14T05:33:28.152Z,13.17
2023-11-14T05:35:54.952Z,12.98
2023-11-14T05:38:24.599Z,12.96
2023-11-14T05:40:51.878Z,12.89
2023-11-14T05:43:19.231Z,12.93
2023-11-14T05:45:46.299Z,12.84
2023-11-14T05:48:13.022Z,12.76
2023-11-14T05:50:39.866Z,12.88
2023-11-14T05:53:06.672Z,12.90
2023-11-14T05:55:35.879Z,12.85
2023-11-14T05:58:03.043Z,13.02
2023-11-14T06:00:31.482Z,12.83
2023-11-14T06:02:58.240Z,12.55
2023-11-14T06:05:25.808Z,12.60
2023-11-14T06:07:53.059Z,12.82
2023-11-14T06:10:21.717Z,12.78
2023-11-14T06:12:48.877Z,12.72
2023-11-14T06:15:16.037Z,12.52
2023-11-14T06:17:43.211Z,12.81
2023-11-14T06:20:10.494Z,12.79
2023-11-14T06:22:37.672Z,12.94
2023-11-14T06:25:06.019Z,12.69
2023-11-14T06:27:33.467Z,12.31
2023-11-14T06:30:03.342Z,12.30
2023-11-14T06:32:32.989Z,12.05
2023-11-14T06:34:59.830Z,11.71
2023-11-14T06:37:27.364Z,11.70
2023-11-14T06:39:54.114Z,11.64
2023-11-14T06:42:21.195Z,11.74
2023-11-14T06:44:48.040Z,11.64
2023-11-14T06:47:14.795Z,11.82
2023-11-14T06:49:41.654Z,11.96
2023-11-14T06:52:11.446Z,11.89
2023-11-14T06:54:38.834Z,11.74
2023-11-14T06:57:06.315Z,11.76
2023-11-14T06:59:33.649Z,12.10
2023-11-14T07:02:00.507Z,11.99
2023-11-14T07:04:27.359Z,12.26
2023-11-14T07:06:54.428Z,12.47
2023-11-14T07:09:22.958Z,12.81
2023-11-14T07:11:50.188Z,13.11
2023-11-14T07:14:17.075Z,13.43
2023-11-14T07:16:43.901Z,12.60
2023-11-14T07:19:10.747Z,12.13
2023-11-14T07:21:37.889Z,11.79
2023-11-14T07:24:06.144Z,11.94
2023-11-14T07:26:33.276Z,12.38
2023-11-14T07:29:01.165Z,12.62
2023-11-14T07:31:28.440Z,13.38
2023-11-14T07:33:55.199Z,13.86
2023-11-14T07:36:22.293Z,14.32
2023-11-14T07:39:28.135Z,14.60
2023-11-14T07:41:56.046Z,14.49
2023-11-14T07:44:22.834Z,13.99
2023-11-14T07:46:50.027Z,13.60
2023-11-14T07:49:17.358Z,13.91
2023-11-14T07:51:44.487Z,14.44
2023-11-14T07:54:11.223Z,14.74
2023-11-14T07:56:41.080Z,14.04
2023-11-14T07:59:07.836Z,14.54
2023-11-14T08:01:34.644Z,12.99
2023-11-14T08:04:01.510Z,13.17
2023-11-14T08:06:28.390Z,13.06
2023-11-14T08:08:55.194Z,12.48
2023-11-14T08:11:21.970Z,12.52
2023-11-14T08:13:48.877Z,13.06
2023-11-14T08:16:15.721Z,13.01
2023-11-14T08:18:42.836Z,12.36
2023-11-14T08:21:09.975Z,12.87
2023-11-14T08:23:37.024Z,12.73
2023-11-14T08:26:03.892Z,12.71
2023-11-14T08:28:30.959Z,12.60
2023-11-14T08:30:57.749Z,12.66
2023-11-14T08:33:24.545Z,12.57
2023-11-14T08:35:51.716Z,12.46
2023-11-14T08:38:21.644Z,12.66
2023-11-14T08:40:49.074Z,13.16
2023-11-14T08:43:16.277Z,12.95
2023-11-14T08:45:43.039Z,13.40
2023-11-14T08:48:10.011Z,12.96
2023-11-14T08:50:37.382Z,13.07
2023-11-14T08:53:05.401Z,13.80
2023-11-14T08:55:32.933Z,12.96
2023-11-14T08:58:00.046Z,13.46
2023-11-14T09:00:26.781Z,14.21
2023-11-14T09:02:53.650Z,14.33
2023-11-14T09:05:20.499Z,14.37
2023-11-14T09:07:53.864Z,14.48
2023-11-14T09:10:20.714Z,14.69
2023-11-14T09:12:47.887Z,14.43
2023-11-14T09:15:15.114Z,15.18
2023-11-14T09:17:45.952Z,14.90
2023-11-14T09:20:15.642Z,14.72
2023-11-14T09:22:42.498Z,15.25
2023-11-14T09:25:09.658Z,14.70
2023-11-14T09:27:42.704Z,14.43
2023-11-14T09:30:09.798Z,14.78
2023-11-14T09:32:36.849Z,14.34
2023-11-14T09:35:03.788Z,14.82
2023-11-14T09:37:30.923Z,13.97
2023-11-14T09:39:57.721Z,12.91
2023-11-14T09:42:25.049Z,13.52
2023-11-14T09:44:52.278Z,14.06
2023-11-14T09:47:19.237Z,13.86
2023-11-14T09:49:46.166Z,13.49
2023-11-14T09:52:13.534Z,13.59
2023-11-14T09:54:43.271Z,14.08
2023-11-14T09:57:10.621Z,13.96
2023-11-14T09:59:37.413Z,14.49
2023-11-14T10:02:04.575Z,14.31
2023-11-14T10:04:31.682Z,14.51
2023-11-14T10:06:58.421Z,14.10
2023-11-14T10:09:26.610Z,13.78
2023-11-14T10:12:12.526Z,13.35
2023-11-14T10:14:46.438Z,13.27
2023-11-14T10:17:16.151Z,13.25
2023-11-14T10:19:59.789Z,13.29
2023-11-14T10:22:27.257Z,13.33
2023-11-14T10:24:54.354Z,13.59
2023-11-14T10:27:34.015Z,13.55
2023-11-14T10:30:01.293Z,13.28
2023-11-14T10:33:08.974Z,12.96
2023-11-14T10:35:36.643Z,12.97
2023-11-14T10:38:20.735Z,13.03
2023-11-14T10:40:49.401Z,13.11
2023-11-14T10:43:32.594Z,12.94
2023-11-14T10:46:13.076Z,12.77
2023-11-14T10:48:39.815Z,12.87
2023-11-14T10:51:07.240Z,13.17
2023-11-14T10:53:34.220Z,12.69
2023-11-14T10:56:02.285Z,12.86
2023-11-14T10:58:29.039Z,12.99
2023-11-14T11:00:57.308Z,12.84
2023-11-14T11:03:24.363Z,13.17
2023-11-14T11:05:51.147Z,13.29
2023-11-14T11:08:17.934Z,13.34
2023-11-14T11:10:44.821Z,13.00
2023-11-14T11:13:13.896Z,13.34
2023-11-14T11:16:07.166Z,13.36
2023-11-14T11:18:34.907Z,13.16
2023-11-14T11:21:11.760Z,13.77
2023-11-14T11:24:04.356Z,14.00
2023-11-14T11:26:31.188Z,13.36
2023-11-14T11:28:57.994Z,13.15
2023-11-14T11:31:25.415Z,13.40
2023-11-14T11:33:52.950Z,13.43
2023-11-14T11:36:23.941Z,13.13
2023-11-14T11:39:10.841Z,13.00
2023-11-14T11:41:55.245Z,13.14
2023-11-14T11:44:22.053Z,12.96
2023-11-14T11:46:49.133Z,12.79
2023-11-14T11:49:16.124Z,12.41
2023-11-14T11:51:46.141Z,12.12
2023-11-14T11:54:28.491Z,12.36
2023-11-14T11:57:10.406Z,12.31
2023-11-14T11:59:43.530Z,12.33
2023-11-14T12:02:20.530Z,12.36
2023-11-14T12:04:47.686Z,12.13
2023-11-14T12:07:14.580Z,11.91
2023-11-14T12:09:42.585Z,11.87
2023-11-14T12:12:09.348Z,12.29
2023-11-14T12:14:36.128Z,12.08
2023-11-14T12:17:03.367Z,12.02
2023-11-14T12:19:30.186Z,12.17
2023-11-14T12:21:57.438Z,12.27
2023-11-14T12:24:25.341Z,12.28
2023-11-14T12:26:52.078Z,12.32
2023-11-14T12:33:05.809Z,11.83
2023-11-14T12:35:52.177Z,11.78
2023-11-14T12:38:33.080Z,11.84
2023-11-14T12:41:28.152Z,12.12
2023-11-14T12:44:06.213Z,12.23
2023-11-14T12:46:36.206Z,12.22
2023-11-14T12:49:19.180Z,12.29
2023-11-14T12:51:50.122Z,12.43
2023-11-14T12:54:18.180Z,12.93
2023-11-14T12:56:45.316Z,12.60
2023-11-14T12:59:12.178Z,12.69
2023-11-14T13:01:39.614Z,12.90
2023-11-14T13:04:12.134Z,12.73
2023-11-14T13:06:41.467Z,12.74
2023-11-14T13:09:08.387Z,12.72
2023-11-14T13:11:35.773Z,12.87
2023-11-14T13:14:02.838Z,12.66
2023-11-14T13:16:29.672Z,12.33
2023-11-14T13:19:06.815Z,12.36
2023-11-14T13:21:33.625Z,12.43
2023-11-14T13:24:00.623Z,12.42
2023-11-14T13:26:27.891Z,12.39
2023-11-14T13:28:54.728Z,12.46
2023-11-14T13:31:21.910Z,12.44
2023-11-14T13:33:48.818Z,12.68
2023-11-14T13:36:16.134Z,12.73
2023-11-14T13:38:43.424Z,12.62
2023-11-14T13:43:40.595Z,12.72
2023-11-14T13:46:13.696Z,12.76
2023-11-14T13:48:46.853Z,12.70
2023-11-14T13:51:13.598Z,12.65
2023-11-14T13:53:40.520Z,12.68
2023-11-14T13:56:10.363Z,12.64
2023-11-14T13:58:37.194Z,12.58
2023-11-14T14:01:05.171Z,12.35
2023-11-14T14:03:31.982Z,12.43
2023-11-14T14:05:59.580Z,12.51
2023-11-14T14:08:26.419Z,12.60
2023-11-14T14:10:53.251Z,12.40
2023-11-14T14:13:20.079Z,12.52
2023-11-14T14:15:46.832Z,12.57
2023-11-14T14:18:13.655Z,12.34
2023-11-14T14:20:41.102Z,12.65
2023-11-14T14:23:13.766Z,12.39
2023-11-14T14:25:40.529Z,12.55
2023-11-14T14:28:07.667Z,12.66
2023-11-14T14:30:34.682Z,12.45
2023-11-14T14:33:01.486Z,12.53
2023-11-14T14:35:28.381Z,12.56
2023-11-14T14:37:55.304Z,12.56
2023-11-14T14:40:22.241Z,12.55
2023-11-14T14:42:49.059Z,12.60
2023-11-14T14:45:16.318Z,12.68
2023-11-14T14:47:43.231Z,12.68
2023-11-14T14:50:10.557Z,12.86
2023-11-14T14:52:38.816Z,12.76
2023-11-14T14:55:06.039Z,12.45
2023-11-14T14:57:32.846Z,12.31
2023-11-14T15:00:06.409Z,12.18
2023-11-14T15:02:33.287Z,11.99
2023-11-14T15:05:00.205Z,11.90
2023-11-14T15:08:00.272Z,11.93
2023-11-14T15:10:27.079Z,12.13
2023-11-14T15:12:53.861Z,12.07
2023-11-14T15:15:20.694Z,12.20
2023-11-14T15:17:47.467Z,12.22
2023-11-14T15:20:15.043Z,12.20
2023-11-14T15:22:42.028Z,12.14
2023-11-14T15:25:11.695Z,12.10
2023-11-14T15:28:14.421Z,12.27
2023-11-14T15:30:41.164Z,12.57
2023-11-14T15:33:08.953Z,12.38
2023-11-14T15:35:36.248Z,12.71
2023-11-14T15:38:03.449Z,12.81
2023-11-14T15:40:30.277Z,12.79
2023-11-14T15:42:57.505Z,12.78
2023-11-14T15:45:24.510Z,12.82
2023-11-14T15:47:51.239Z,12.69
2023-11-14T15:50:18.682Z,13.31
2023-11-14T15:52:46.245Z,12.97
2023-11-14T15:55:13.279Z,12.81
2023-11-14T15:57:40.443Z,12.70
2023-11-14T16:00:09.401Z,12.75
2023-11-14T16:02:37.287Z,12.59
2023-11-14T16:05:05.378Z,12.22
2023-11-14T16:07:34.657Z,12.17
2023-11-14T16:10:02.305Z,11.96
2023-11-14T16:12:31.903Z,11.70
2023-11-14T16:14:59.503Z,11.81
2023-11-14T16:17:40.581Z,11.91
2023-11-14T16:20:08.699Z,11.91
2023-11-14T16:22:35.999Z,11.72
2023-11-14T16:25:03.672Z,11.77
2023-11-14T16:27:30.468Z,11.78
2023-11-14T16:29:57.258Z,11.59
2023-11-14T16:32:32.155Z,11.91
2023-11-14T16:34:59.065Z,11.73
2023-11-14T16:37:25.908Z,11.86
2023-11-14T16:39:52.759Z,12.06
2023-11-14T16:42:19.979Z,12.09
2023-11-14T16:44:47.142Z,12.24
2023-11-14T16:47:14.158Z,12.18
2023-11-14T16:49:41.457Z,12.30
2023-11-14T16:52:08.542Z,12.22
2023-11-14T16:54:35.383Z,12.39
2023-11-14T16:57:02.457Z,12.55
2023-11-14T16:59:29.266Z,12.58
2023-11-14T17:01:56.464Z,12.72
2023-11-14T17:04:24.639Z,12.46
2023-11-14T17:06:52.170Z,12.66
2023-11-14T17:09:19.698Z,12.78
2023-11-14T17:11:47.002Z,12.73
2023-11-14T17:14:14.194Z,13.04
2023-11-14T17:16:41.063Z,12.81
2023-11-14T17:19:09.581Z,12.96
2023-11-14T17:21:39.953Z,13.11
2023-11-14T17:24:07.754Z,12.77
2023-11-14T17:26:35.671Z,12.51
2023-11-14T17:29:35.735Z,12.43
2023-11-14T17:32:02.984Z,12.46
2023-11-14T17:34:30.318Z,12.60
2023-11-14T17:36:57.064Z,12.35
2023-11-14T17:39:24.412Z,12.26
2023-11-14T17:41:51.686Z,12.06
2023-11-14T17:44:19.000Z,12.48
2023-11-14T17:46:46.006Z,12.53
2023-11-14T17:49:13.294Z,12.29
2023-11-14T17:51:40.930Z,12.20
2023-11-14T17:54:07.890Z,12.39
2023-11-14T17:56:34.859Z,12.45
2023-11-14T17:59:02.450Z,12.25
2023-11-14T18:01:29.273Z,12.21
2023-11-14T18:03:56.344Z,12.42
2023-11-14T18:06:23.380Z,12.32
2023-11-14T18:08:51.749Z,12.47
2023-11-14T18:11:19.074Z,12.35
2023-11-14T18:13:46.263Z,12.25
2023-11-14T18:16:14.542Z,12.08
2023-11-14T18:18:41.379Z,11.97
2023-11-14T18:21:08.388Z,12.09
2023-11-14T18:23:35.279Z,12.11
2023-11-14T18:26:02.391Z,12.09
2023-11-14T18:28:29.242Z,12.23
2023-11-14T18:30:56.282Z,12.09
2023-11-14T18:34:01.324Z,12.08
2023-11-14T18:36:28.150Z,12.03
2023-11-14T18:38:54.954Z,11.97
2023-11-14T18:41:21.741Z,12.02
2023-11-14T18:43:49.378Z,12.05
2023-11-14T18:46:16.667Z,12.02
2023-11-14T18:48:43.541Z,12.05
2023-11-14T18:51:10.823Z,12.12
2023-11-14T18:53:37.632Z,11.88
2023-11-14T18:56:06.296Z,11.90
2023-11-14T18:58:33.199Z,11.98
2023-11-14T19:00:59.920Z,11.95
2023-11-14T19:03:27.232Z,11.85
2023-11-14T19:05:54.544Z,11.97
2023-11-14T19:08:21.353Z,11.92
2023-11-14T19:10:48.447Z,11.94
2023-11-14T19:13:15.421Z,11.88
2023-11-14T19:15:42.689Z,11.91
2023-11-14T19:18:09.570Z,11.81
2023-11-14T19:20:36.467Z,11.84
2023-11-14T19:23:40.081Z,11.77
2023-11-14T19:25:50.592Z,11.80
2023-11-14T19:28:17.763Z,11.74
2023-11-14T19:30:45.338Z,11.82
2023-11-14T19:33:12.215Z,11.90
2023-11-14T19:35:39.160Z,11.94
2023-11-14T19:38:06.022Z,11.90
2023-11-14T19:40:32.777Z,12.07
2023-11-14T19:43:24.374Z,11.99
2023-11-14T19:45:51.582Z,11.92
2023-11-14T19:48:19.051Z,12.03
2023-11-14T19:50:46.244Z,12.04
2023-11-14T19:53:13.365Z,12.11
2023-11-14T19:55:40.095Z,12.15
2023-11-14T19:58:07.224Z,12.20
2023-11-14T20:00:34.181Z,12.06
2023-11-14T20:03:01.581Z,12.02
2023-11-14T20:05:28.412Z,12.09
2023-11-14T20:07:55.205Z,11.99
2023-11-14T20:10:22.083Z,12.06
2023-11-14T20:12:49.945Z,12.01
2023-11-14T20:15:17.354Z,12.04
2023-11-14T20:17:44.307Z,11.85
2023-11-14T20:20:11.765Z,11.84
2023-11-14T20:22:39.775Z,11.90
2023-11-14T20:25:07.580Z,12.03
2023-11-14T20:27:34.784Z,11.80
2023-11-14T20:30:02.348Z,12.03
2023-11-14T20:32:29.812Z,12.21
2023-11-14T20:34:57.109Z,12.11
2023-11-14T20:37:24.504Z,12.35
2023-11-14T20:39:51.228Z,12.38
2023-11-14T20:42:18.066Z,12.43
2023-11-14T20:44:44.877Z,12.21
2023-11-14T20:47:11.706Z,12.01
2023-11-14T20:49:38.556Z,11.95
2023-11-14T20:52:05.658Z,11.72
2023-11-14T20:54:32.811Z,11.92
2023-11-14T20:56:59.856Z,11.66
2023-11-14T20:59:27.146Z,11.77
2023-11-14T21:01:54.231Z,11.76
2023-11-14T21:04:21.704Z,11.85
2023-11-14T21:06:48.623Z,11.78
2023-11-14T21:09:15.711Z,12.06
2023-11-14T21:11:43.136Z,12.01
2023-11-14T21:14:10.068Z,12.00
2023-11-14T21:16:37.952Z,11.87
2023-11-14T21:19:05.266Z,11.82
2023-11-14T21:21:32.177Z,11.74
2023-11-14T21:23:59.142Z,11.95
2023-11-14T21:26:25.960Z,11.94
2023-11-14T21:28:53.014Z,11.85
2023-11-14T21:31:19.811Z,11.72
2023-11-14T21:33:46.996Z,11.53
2023-11-14T21:36:13.732Z,11.51
2023-11-14T21:38:40.968Z,11.60
2023-11-14T21:41:08.217Z,11.33
2023-11-14T21:43:35.117Z,11.22
2023-11-14T21:46:01.914Z,11.16
2023-11-14T21:48:29.073Z,11.29
2023-11-14T21:50:55.823Z,11.20
2023-11-14T21:53:23.015Z,11.13
2023-11-14T21:55:50.031Z,11.09
2023-11-14T21:58:17.879Z,11.16
2023-11-14T22:00:44.756Z,11.19
2023-11-14T22:03:11.617Z,11.35
2023-11-14T22:05:38.470Z,11.33
2023-11-14T22:08:06.305Z,11.22
2023-11-14T22:10:33.117Z,11.24
2023-11-14T22:12:59.917Z,11.28
2023-11-14T22:15:36.972Z,11.23
2023-11-14T22:18:04.183Z,11.16
2023-11-14T22:20:30.955Z,11.03
2023-11-14T22:22:57.794Z,11.12
2023-11-14T22:25:25.174Z,11.10
2023-11-14T22:27:52.026Z,11.21
2023-11-14T22:30:18.768Z,11.06
2023-11-14T22:32:45.570Z,11.08
2023-11-14T22:35:12.302Z,11.05
2023-11-14T22:37:39.299Z,10.98
2023-11-14T22:40:06.655Z,10.95
2023-11-14T22:42:33.655Z,10.93
2023-11-14T22:45:00.811Z,10.93
2023-11-14T22:47:38.002Z,11.01
2023-11-14T22:50:05.175Z,11.03
2023-11-14T22:52:31.927Z,10.98
2023-11-14T22:55:06.253Z,10.91
2023-11-14T22:57:33.886Z,10.92
2023-11-14T23:00:01.156Z,10.82
2023-11-14T23:02:27.945Z,10.77
2023-11-14T23:04:55.008Z,10.68
2023-11-14T23:07:22.086Z,10.77
2023-11-14T23:09:49.168Z,10.95
2023-11-14T23:12:16.425Z,10.84
2023-11-14T23:14:43.198Z,10.89
2023-11-14T23:17:28.587Z,10.71
2023-11-14T23:19:55.440Z,10.74
2023-11-14T23:22:22.161Z,10.83
2023-11-14T23:24:48.938Z,10.98
2023-11-14T23:27:15.716Z,10.89
2023-11-14T23:29:42.556Z,10.99
2023-11-14T23:32:09.655Z,10.92
2023-11-14T23:34:36.811Z,11.09
2023-11-14T23:37:03.544Z,10.79
2023-11-14T23:39:30.740Z,10.71
2023-11-14T23:41:57.576Z,10.48
2023-11-14T23:44:24.413Z,10.69
2023-11-14T23:46:51.193Z,10.62
2023-11-14T23:49:18.013Z,10.75
2023-11-14T23:51:44.988Z,10.65
2023-11-14T23:54:11.759Z,10.58
2023-11-14T23:56:38.617Z,10.59
2023-11-14T23:59:05.429Z,10.72
